Terminal Aerodrome Forecast
Issued by NWS

Home | Current Version | Previous Version | Text Only | Print | Product List | Glossary On
Versions: 1 2 3 4 5 6 7 8 9 10 11 12 13 14 15 16 17 18 19 20 21 22 23 24 25
709
FTUS43 KDLH 051830 AAA
TAFHYR
TAF AMD
KHYR 051830Z 0519/0618 16005KT P6SM BKN090
      TEMPO 0519/0521 BKN025
     FM052100 16008KT P6SM VCSH OVC025
     FM060100 17009KT 5SM BR VCSH OVC015
     FM060900 21008KT P6SM VCSH BKN015
     FM061400 22010G18KT P6SM VCSH OVC012=

USA.gov is the U.S. government's official web portal to all federal, state and local government web resources and services.